sensor_id;sensor_type;location;lat;lon;timestamp;temperature;humidity
20398;DHT22;10358;49.590;11.030;2023-02-19T00:02:22;9.80;99.90
20398;DHT22;10358;49.590;11.030;2023-02-19T00:04:48;9.70;99.90
20398;DHT22;10358;49.590;11.030;2023-02-19T00:07:13;9.70;99.90
20398;DHT22;10358;49.590;11.030;2023-02-19T00:09:39;9.80;99.90
20398;DHT22;10358;49.590;11.030;2023-02-19T00:12:05;9.70;99.90
20398;DHT22;10358;49.590;11.030;2023-02-19T00:14:30;9.70;99.90
20398;DHT22;10358;49.590;11.030;2023-02-19T00:16:56;9.70;99.90
20398;DHT22;10358;49.590;11.030;2023-02-19T00:19:21;9.70;99.90
20398;DHT22;10358;49.590;11.030;2023-02-19T00:21:50;9.70;99.90
20398;DHT22;10358;49.590;11.030;2023-02-19T00:24:16;9.60;99.90
20398;DHT22;10358;49.590;11.030;2023-02-19T00:26:42;9.60;99.90
20398;DHT22;10358;49.590;11.030;2023-02-19T00:29:12;9.50;99.90
20398;DHT22;10358;49.590;11.030;2023-02-19T00:31:38;9.50;99.90
20398;DHT22;10358;49.590;11.030;2023-02-19T00:34:05;9.50;99.90
20398;DHT22;10358;49.590;11.030;2023-02-19T00:36:32;9.50;99.90
20398;DHT22;10358;49.590;11.030;2023-02-19T00:39:00;9.50;99.90
20398;DHT22;10358;49.590;11.030;2023-02-19T00:41:26;9.40;99.90
20398;DHT22;10358;49.590;11.030;2023-02-19T00:43:57;9.50;99.90
20398;DHT22;10358;49.590;11.030;2023-02-19T00:46:38;9.40;99.90
20398;DHT22;10358;49.590;11.030;2023-02-19T00:49:05;9.40;99.90
20398;DHT22;10358;49.590;11.030;2023-02-19T00:51:33;9.40;99.90
20398;DHT22;10358;49.590;11.030;2023-02-19T00:54:00;9.40;99.90
20398;DHT22;10358;49.590;11.030;2023-02-19T00:56:26;9.40;99.90
20398;DHT22;10358;49.590;11.030;2023-02-19T00:58:52;9.40;99.90
20398;DHT22;10358;49.590;11.030;2023-02-19T01:01:18;9.30;99.90
20398;DHT22;10358;49.590;11.030;2023-02-19T01:03:44;9.30;99.90
20398;DHT22;10358;49.590;11.030;2023-02-19T01:06:11;9.30;99.90
20398;DHT22;10358;49.590;11.030;2023-02-19T01:08:37;9.30;99.90
20398;DHT22;10358;49.590;11.030;2023-02-19T01:11:04;9.30;99.90
20398;DHT22;10358;49.590;11.030;2023-02-19T01:13:30;9.20;99.90
20398;DHT22;10358;49.590;11.030;2023-02-19T01:16:08;9.20;99.90
20398;DHT22;10358;49.590;11.030;2023-02-19T01:18:34;9.10;99.90
20398;DHT22;10358;49.590;11.030;2023-02-19T01:21:04;9.00;99.90
20398;DHT22;10358;49.590;11.030;2023-02-19T01:23:31;9.00;99.90
20398;DHT22;10358;49.590;11.030;2023-02-19T01:25:57;9.00;99.90
20398;DHT22;10358;49.590;11.030;2023-02-19T01:28:22;9.00;99.90
20398;DHT22;10358;49.590;11.030;2023-02-19T01:30:48;9.00;99.90
20398;DHT22;10358;49.590;11.030;2023-02-19T01:33:13;9.00;99.90
20398;DHT22;10358;49.590;11.030;2023-02-19T01:35:39;9.00;99.90
20398;DHT22;10358;49.590;11.030;2023-02-19T01:38:05;8.90;99.90
20398;DHT22;10358;49.590;11.030;2023-02-19T01:40:32;8.90;99.90
20398;DHT22;10358;49.590;11.030;2023-02-19T01:42:58;8.90;99.90
20398;DHT22;10358;49.590;11.030;2023-02-19T01:47:57;8.90;99.90
20398;DHT22;10358;49.590;11.030;2023-02-19T01:50:27;8.90;99.90
20398;DHT22;10358;49.590;11.030;2023-02-19T01:52:53;8.90;99.90
20398;DHT22;10358;49.590;11.030;2023-02-19T01:55:19;8.80;99.90
20398;DHT22;10358;49.590;11.030;2023-02-19T01:57:49;8.90;99.90
20398;DHT22;10358;49.590;11.030;2023-02-19T02:00:17;8.90;99.90
20398;DHT22;10358;49.590;11.030;2023-02-19T02:02:45;8.80;99.90
20398;DHT22;10358;49.590;11.030;2023-02-19T02:05:20;8.80;99.90
20398;DHT22;10358;49.590;11.030;2023-02-19T02:07:47;8.80;99.90
20398;DHT22;10358;49.590;11.030;2023-02-19T02:10:31;8.80;99.90
20398;DHT22;10358;49.590;11.030;2023-02-19T02:12:57;8.80;99.90
20398;DHT22;10358;49.590;11.030;2023-02-19T02:15:28;8.80;99.90
20398;DHT22;10358;49.590;11.030;2023-02-19T02:18:04;8.80;99.90
20398;DHT22;10358;49.590;11.030;2023-02-19T02:26:31;8.80;99.90
20398;DHT22;10358;49.590;11.030;2023-02-19T02:29:13;8.70;99.90
20398;DHT22;10358;49.590;11.030;2023-02-19T02:31:55;8.70;99.90
20398;DHT22;10358;49.590;11.030;2023-02-19T02:34:33;8.70;99.90
20398;DHT22;10358;49.590;11.030;2023-02-19T02:37:02;8.70;99.90
20398;DHT22;10358;49.590;11.030;2023-02-19T02:39:29;8.70;99.90
20398;DHT22;10358;49.590;11.030;2023-02-19T02:45:37;8.60;99.90
20398;DHT22;10358;49.590;11.030;2023-02-19T02:50:39;8.60;99.90
20398;DHT22;10358;49.590;11.030;2023-02-19T02:53:32;8.60;99.90
20398;DHT22;10358;49.590;11.030;2023-02-19T02:56:18;8.60;99.90
20398;DHT22;10358;49.590;11.030;2023-02-19T02:58:46;8.60;99.90
20398;DHT22;10358;49.590;11.030;2023-02-19T03:01:27;8.60;99.90
20398;DHT22;10358;49.590;11.030;2023-02-19T03:04:18;8.60;99.90
20398;DHT22;10358;49.590;11.030;2023-02-19T03:06:46;8.70;99.90
20398;DHT22;10358;49.590;11.030;2023-02-19T03:09:18;8.70;99.90
20398;DHT22;10358;49.590;11.030;2023-02-19T03:11:48;8.70;99.90
20398;DHT22;10358;49.590;11.030;2023-02-19T03:14:37;8.70;99.90
20398;DHT22;10358;49.590;11.030;2023-02-19T03:17:38;8.70;99.90
20398;DHT22;10358;49.590;11.030;2023-02-19T03:20:25;8.70;99.90
20398;DHT22;10358;49.590;11.030;2023-02-19T03:22:52;8.70;99.90
20398;DHT22;10358;49.590;11.030;2023-02-19T03:25:22;8.70;99.90
20398;DHT22;10358;49.590;11.030;2023-02-19T03:28:09;8.80;99.90
20398;DHT22;10358;49.590;11.030;2023-02-19T03:30:40;8.80;99.90
20398;DHT22;10358;49.590;11.030;2023-02-19T03:35:45;8.70;99.90
20398;DHT22;10358;49.590;11.030;2023-02-19T03:38:24;8.80;99.90
20398;DHT22;10358;49.590;11.030;2023-02-19T03:41:06;8.70;99.90
20398;DHT22;10358;49.590;11.030;2023-02-19T03:43:53;8.70;99.90
20398;DHT22;10358;49.590;11.030;2023-02-19T03:46:34;8.80;99.90
20398;DHT22;10358;49.590;11.030;2023-02-19T03:49:19;8.80;99.90
20398;DHT22;10358;49.590;11.030;2023-02-19T03:52:17;8.80;99.90
20398;DHT22;10358;49.590;11.030;2023-02-19T03:57:37;8.80;99.90
20398;DHT22;10358;49.590;11.030;2023-02-19T04:00:09;8.80;99.90
20398;DHT22;10358;49.590;11.030;2023-02-19T04:02:40;8.80;99.90
20398;DHT22;10358;49.590;11.030;2023-02-19T04:05:29;8.80;99.90
20398;DHT22;10358;49.590;11.030;2023-02-19T04:07:58;8.80;99.90
20398;DHT22;10358;49.590;11.030;2023-02-19T04:10:26;8.80;99.90
20398;DHT22;10358;49.590;11.030;2023-02-19T04:12:57;8.80;99.90
20398;DHT22;10358;49.590;11.030;2023-02-19T04:15:28;8.80;99.90
20398;DHT22;10358;49.590;11.030;2023-02-19T04:18:01;8.80;99.90
20398;DHT22;10358;49.590;11.030;2023-02-19T04:20:32;8.80;99.90
20398;DHT22;10358;49.590;11.030;2023-02-19T04:22:58;8.80;99.90
20398;DHT22;10358;49.590;11.030;2023-02-19T04:25:25;8.80;99.90
20398;DHT22;10358;49.590;11.030;2023-02-19T04:27:52;8.80;99.90
20398;DHT22;10358;49.590;11.030;2023-02-19T04:30:17;8.80;99.90
20398;DHT22;10358;49.590;11.030;2023-02-19T04:32:43;8.80;99.90
20398;DHT22;10358;49.590;11.030;2023-02-19T04:35:08;8.80;99.90
20398;DHT22;10358;49.590;11.030;2023-02-19T04:37:34;8.90;99.90
20398;DHT22;10358;49.590;11.030;2023-02-19T04:40:01;8.80;99.90
20398;DHT22;10358;49.590;11.030;2023-02-19T04:42:26;8.90;99.90
20398;DHT22;10358;49.590;11.030;2023-02-19T04:44:52;8.80;99.90
20398;DHT22;10358;49.590;11.030;2023-02-19T04:47:17;8.80;99.90
20398;DHT22;10358;49.590;11.030;2023-02-19T04:49:44;8.80;99.90
20398;DHT22;10358;49.590;11.030;2023-02-19T04:52:10;8.90;99.90
20398;DHT22;10358;49.590;11.030;2023-02-19T04:54:36;8.90;99.90
20398;DHT22;10358;49.590;11.030;2023-02-19T04:57:02;8.90;99.90
20398;DHT22;10358;49.590;11.030;2023-02-19T04:59:27;8.90;99.90
20398;DHT22;10358;49.590;11.030;2023-02-19T05:01:53;8.90;99.90
20398;DHT22;10358;49.590;11.030;2023-02-19T05:04:18;8.90;99.90
20398;DHT22;10358;49.590;11.030;2023-02-19T05:06:44;8.90;99.90
20398;DHT22;10358;49.590;11.030;2023-02-19T05:09:10;8.90;99.90
20398;DHT22;10358;49.590;11.030;2023-02-19T05:11:35;8.90;99.90
20398;DHT22;10358;49.590;11.030;2023-02-19T05:14:01;8.90;99.90
20398;DHT22;10358;49.590;11.030;2023-02-19T05:16:26;8.90;99.90
20398;DHT22;10358;49.590;11.030;2023-02-19T05:18:52;8.90;99.90
20398;DHT22;10358;49.590;11.030;2023-02-19T05:21:18;9.00;99.90
20398;DHT22;10358;49.590;11.030;2023-02-19T05:23:43;9.00;99.90
20398;DHT22;10358;49.590;11.030;2023-02-19T05:26:16;9.00;99.90
20398;DHT22;10358;49.590;11.030;2023-02-19T05:28:43;9.00;99.90
20398;DHT22;10358;49.590;11.030;2023-02-19T05:31:10;8.90;99.90
20398;DHT22;10358;49.590;11.030;2023-02-19T05:33:35;9.00;99.90
20398;DHT22;10358;49.590;11.030;2023-02-19T05:36:05;8.90;99.90
20398;DHT22;10358;49.590;11.030;2023-02-19T05:38:32;8.90;99.90
20398;DHT22;10358;49.590;11.030;2023-02-19T05:41:18;8.90;99.90
20398;DHT22;10358;49.590;11.030;2023-02-19T05:43:46;8.90;99.90
20398;DHT22;10358;49.590;11.030;2023-02-19T05:46:13;8.90;99.90
20398;DHT22;10358;49.590;11.030;2023-02-19T05:48:39;8.90;99.90
20398;DHT22;10358;49.590;11.030;2023-02-19T05:51:07;9.00;99.90
20398;DHT22;10358;49.590;11.030;2023-02-19T05:53:34;9.00;99.90
20398;DHT22;10358;49.590;11.030;2023-02-19T05:55:59;9.00;99.90
20398;DHT22;10358;49.590;11.030;2023-02-19T05:58:26;9.00;99.90
20398;DHT22;10358;49.590;11.030;2023-02-19T06:00:52;9.00;99.90
20398;DHT22;10358;49.590;11.030;2023-02-19T06:03:17;9.00;99.90
20398;DHT22;10358;49.590;11.030;2023-02-19T06:05:43;9.00;99.90
20398;DHT22;10358;49.590;11.030;2023-02-19T06:08:11;9.00;99.90
20398;DHT22;10358;49.590;11.030;2023-02-19T06:10:37;9.00;99.90
20398;DHT22;10358;49.590;11.030;2023-02-19T06:13:06;9.00;99.90
20398;DHT22;10358;49.590;11.030;2023-02-19T06:15:31;9.00;99.90
20398;DHT22;10358;49.590;11.030;2023-02-19T06:17:57;9.00;99.90
20398;DHT22;10358;49.590;11.030;2023-02-19T06:20:22;9.00;99.90
20398;DHT22;10358;49.590;11.030;2023-02-19T06:22:51;9.00;99.90
20398;DHT22;10358;49.590;11.030;2023-02-19T06:25:17;9.00;99.90
20398;DHT22;10358;49.590;11.030;2023-02-19T06:27:43;9.00;99.90
20398;DHT22;10358;49.590;11.030;2023-02-19T06:30:09;9.00;99.90
20398;DHT22;10358;49.590;11.030;2023-02-19T06:32:35;9.00;99.90
20398;DHT22;10358;49.590;11.030;2023-02-19T06:35:01;9.00;99.90
20398;DHT22;10358;49.590;11.030;2023-02-19T06:37:28;9.00;99.90
20398;DHT22;10358;49.590;11.030;2023-02-19T06:39:54;9.00;99.90
20398;DHT22;10358;49.590;11.030;2023-02-19T06:42:19;9.00;99.90
20398;DHT22;10358;49.590;11.030;2023-02-19T06:44:45;9.00;99.90
20398;DHT22;10358;49.590;11.030;2023-02-19T06:47:10;9.00;99.90
20398;DHT22;10358;49.590;11.030;2023-02-19T06:49:38;9.00;99.90
20398;DHT22;10358;49.590;11.030;2023-02-19T06:52:03;9.00;99.90
20398;DHT22;10358;49.590;11.030;2023-02-19T06:54:29;9.00;99.90
20398;DHT22;10358;49.590;11.030;2023-02-19T06:56:55;9.00;99.90
20398;DHT22;10358;49.590;11.030;2023-02-19T06:59:23;9.00;99.90
20398;DHT22;10358;49.590;11.030;2023-02-19T07:01:49;9.00;99.90
20398;DHT22;10358;49.590;11.030;2023-02-19T07:04:15;9.00;99.90
20398;DHT22;10358;49.590;11.030;2023-02-19T07:06:41;9.00;99.90
20398;DHT22;10358;49.590;11.030;2023-02-19T07:09:09;9.00;99.90
20398;DHT22;10358;49.590;11.030;2023-02-19T07:11:37;9.00;99.90
20398;DHT22;10358;49.590;11.030;2023-02-19T07:14:05;9.00;99.90
20398;DHT22;10358;49.590;11.030;2023-02-19T07:16:32;9.00;99.90
20398;DHT22;10358;49.590;11.030;2023-02-19T07:18:59;9.00;99.90
20398;DHT22;10358;49.590;11.030;2023-02-19T07:21:25;9.10;99.90
20398;DHT22;10358;49.590;11.030;2023-02-19T07:23:51;9.10;99.90
20398;DHT22;10358;49.590;11.030;2023-02-19T07:26:19;9.10;99.90
20398;DHT22;10358;49.590;11.030;2023-02-19T07:28:47;9.20;99.90
20398;DHT22;10358;49.590;11.030;2023-02-19T07:31:16;9.20;99.90
20398;DHT22;10358;49.590;11.030;2023-02-19T07:33:43;9.20;99.90
20398;DHT22;10358;49.590;11.030;2023-02-19T07:36:09;9.20;99.90
20398;DHT22;10358;49.590;11.030;2023-02-19T07:38:35;9.20;99.90
20398;DHT22;10358;49.590;11.030;2023-02-19T07:41:02;9.20;99.90
20398;DHT22;10358;49.590;11.030;2023-02-19T07:43:30;9.20;99.90
20398;DHT22;10358;49.590;11.030;2023-02-19T07:45:56;9.30;99.90
20398;DHT22;10358;49.590;11.030;2023-02-19T07:48:22;9.30;99.90
20398;DHT22;10358;49.590;11.030;2023-02-19T07:50:55;9.30;99.90
20398;DHT22;10358;49.590;11.030;2023-02-19T07:53:22;9.30;99.90
20398;DHT22;10358;49.590;11.030;2023-02-19T07:55:49;9.30;99.90
20398;DHT22;10358;49.590;11.030;2023-02-19T07:58:15;9.30;99.90
20398;DHT22;10358;49.590;11.030;2023-02-19T08:00:41;9.30;99.90
20398;DHT22;10358;49.590;11.030;2023-02-19T08:03:06;9.30;99.90
20398;DHT22;10358;49.590;11.030;2023-02-19T08:05:36;9.30;99.90
20398;DHT22;10358;49.590;11.030;2023-02-19T08:08:04;9.30;99.90
20398;DHT22;10358;49.590;11.030;2023-02-19T08:10:30;9.40;99.90
20398;DHT22;10358;49.590;11.030;2023-02-19T08:13:15;9.40;99.90
20398;DHT22;10358;49.590;11.030;2023-02-19T08:15:47;9.40;99.90
20398;DHT22;10358;49.590;11.030;2023-02-19T08:18:14;9.40;99.90
20398;DHT22;10358;49.590;11.030;2023-02-19T08:20:41;9.40;99.90
20398;DHT22;10358;49.590;11.030;2023-02-19T08:23:07;9.40;99.90
20398;DHT22;10358;49.590;11.030;2023-02-19T08:25:32;9.40;99.90
20398;DHT22;10358;49.590;11.030;2023-02-19T08:27:58;9.40;99.90
20398;DHT22;10358;49.590;11.030;2023-02-19T08:30:28;9.50;99.90
20398;DHT22;10358;49.590;11.030;2023-02-19T08:32:54;9.50;99.90
20398;DHT22;10358;49.590;11.030;2023-02-19T08:35:20;9.50;99.90
20398;DHT22;10358;49.590;11.030;2023-02-19T08:37:46;9.60;99.90
20398;DHT22;10358;49.590;11.030;2023-02-19T08:40:12;9.60;99.90
20398;DHT22;10358;49.590;11.030;2023-02-19T08:42:38;9.60;99.90
20398;DHT22;10358;49.590;11.030;2023-02-19T08:45:04;9.60;99.90
20398;DHT22;10358;49.590;11.030;2023-02-19T08:47:30;9.60;99.90
20398;DHT22;10358;49.590;11.030;2023-02-19T08:49:56;9.70;99.90
20398;DHT22;10358;49.590;11.030;2023-02-19T08:52:21;9.60;99.90
20398;DHT22;10358;49.590;11.030;2023-02-19T08:54:47;9.70;99.90
20398;DHT22;10358;49.590;11.030;2023-02-19T08:57:12;9.70;99.90
20398;DHT22;10358;49.590;11.030;2023-02-19T08:59:38;9.70;99.90
20398;DHT22;10358;49.590;11.030;2023-02-19T09:02:03;9.80;99.90
20398;DHT22;10358;49.590;11.030;2023-02-19T09:04:29;9.80;99.90
20398;DHT22;10358;49.590;11.030;2023-02-19T09:06:54;9.80;99.90
20398;DHT22;10358;49.590;11.030;2023-02-19T09:09:20;9.90;99.90
20398;DHT22;10358;49.590;11.030;2023-02-19T09:11:46;9.90;99.90
20398;DHT22;10358;49.590;11.030;2023-02-19T09:14:11;9.90;99.90
20398;DHT22;10358;49.590;11.030;2023-02-19T09:16:37;9.90;99.90
20398;DHT22;10358;49.590;11.030;2023-02-19T09:19:03;9.90;99.90
20398;DHT22;10358;49.590;11.030;2023-02-19T09:21:29;9.90;99.90
20398;DHT22;10358;49.590;11.030;2023-02-19T09:23:54;9.90;99.90
20398;DHT22;10358;49.590;11.030;2023-02-19T09:26:20;9.90;99.90
20398;DHT22;10358;49.590;11.030;2023-02-19T09:28:46;9.80;99.90
20398;DHT22;10358;49.590;11.030;2023-02-19T09:31:13;9.80;99.90
20398;DHT22;10358;49.590;11.030;2023-02-19T09:33:43;9.80;99.90
20398;DHT22;10358;49.590;11.030;2023-02-19T09:36:09;9.80;99.90
20398;DHT22;10358;49.590;11.030;2023-02-19T09:38:35;9.70;99.90
20398;DHT22;10358;49.590;11.030;2023-02-19T09:41:06;9.80;99.90
20398;DHT22;10358;49.590;11.030;2023-02-19T09:43:33;9.80;99.90
20398;DHT22;10358;49.590;11.030;2023-02-19T09:46:06;9.80;99.90
20398;DHT22;10358;49.590;11.030;2023-02-19T09:48:34;9.80;99.90
20398;DHT22;10358;49.590;11.030;2023-02-19T09:51:00;9.80;99.90
20398;DHT22;10358;49.590;11.030;2023-02-19T09:53:31;9.90;99.90
20398;DHT22;10358;49.590;11.030;2023-02-19T09:55:58;9.80;99.90
20398;DHT22;10358;49.590;11.030;2023-02-19T09:58:28;9.80;99.90
20398;DHT22;10358;49.590;11.030;2023-02-19T10:00:57;9.80;99.90
20398;DHT22;10358;49.590;11.030;2023-02-19T10:03:25;9.80;99.90
20398;DHT22;10358;49.590;11.030;2023-02-19T10:05:56;9.90;99.90
20398;DHT22;10358;49.590;11.030;2023-02-19T10:08:23;9.80;99.90
20398;DHT22;10358;49.590;11.030;2023-02-19T10:10:48;9.80;99.90
20398;DHT22;10358;49.590;11.030;2023-02-19T10:13:19;9.80;99.90
20398;DHT22;10358;49.590;11.030;2023-02-19T10:15:56;9.80;99.90
20398;DHT22;10358;49.590;11.030;2023-02-19T10:18:25;9.80;99.90
20398;DHT22;10358;49.590;11.030;2023-02-19T10:20:53;9.80;99.90
20398;DHT22;10358;49.590;11.030;2023-02-19T10:23:19;9.80;99.90
20398;DHT22;10358;49.590;11.030;2023-02-19T10:25:55;9.80;99.90
20398;DHT22;10358;49.590;11.030;2023-02-19T10:28:28;9.90;99.90
20398;DHT22;10358;49.590;11.030;2023-02-19T10:30:56;9.90;99.90
20398;DHT22;10358;49.590;11.030;2023-02-19T10:33:22;10.00;99.90
20398;DHT22;10358;49.590;11.030;2023-02-19T10:36:01;10.00;99.90
20398;DHT22;10358;49.590;11.030;2023-02-19T10:38:33;10.00;99.90
20398;DHT22;10358;49.590;11.030;2023-02-19T10:41:04;10.10;99.90
20398;DHT22;10358;49.590;11.030;2023-02-19T10:43:34;10.10;99.90
20398;DHT22;10358;49.590;11.030;2023-02-19T10:46:05;10.20;99.90
20398;DHT22;10358;49.590;11.030;2023-02-19T10:48:34;10.20;99.90
20398;DHT22;10358;49.590;11.030;2023-02-19T10:51:05;10.20;99.90
20398;DHT22;10358;49.590;11.030;2023-02-19T10:56:09;10.10;99.90
20398;DHT22;10358;49.590;11.030;2023-02-19T10:58:35;10.00;99.90
20398;DHT22;10358;49.590;11.030;2023-02-19T11:03:38;9.90;99.90
20398;DHT22;10358;49.590;11.030;2023-02-19T11:06:06;9.80;99.90
20398;DHT22;10358;49.590;11.030;2023-02-19T11:08:54;9.80;99.90
20398;DHT22;10358;49.590;11.030;2023-02-19T11:11:40;9.80;99.90
20398;DHT22;10358;49.590;11.030;2023-02-19T11:14:18;9.90;99.90
20398;DHT22;10358;49.590;11.030;2023-02-19T11:16:48;9.90;99.90
20398;DHT22;10358;49.590;11.030;2023-02-19T11:21:53;10.00;99.90
20398;DHT22;10358;49.590;11.030;2023-02-19T11:24:27;10.10;99.90
20398;DHT22;10358;49.590;11.030;2023-02-19T11:26:54;10.00;99.90
20398;DHT22;10358;49.590;11.030;2023-02-19T11:29:22;10.10;99.90
20398;DHT22;10358;49.590;11.030;2023-02-19T11:31:49;10.20;99.90
20398;DHT22;10358;49.590;11.030;2023-02-19T11:36:46;10.20;99.90
20398;DHT22;10358;49.590;11.030;2023-02-19T11:39:22;10.20;99.90
20398;DHT22;10358;49.590;11.030;2023-02-19T11:44:44;10.20;99.90
20398;DHT22;10358;49.590;11.030;2023-02-19T11:47:38;10.20;99.90
20398;DHT22;10358;49.590;11.030;2023-02-19T11:52:51;10.20;99.90
20398;DHT22;10358;49.590;11.030;2023-02-19T12:29:40;10.10;99.90
20398;DHT22;10358;49.590;11.030;2023-02-19T12:44:15;9.90;99.90
20398;DHT22;10358;49.590;11.030;2023-02-19T12:46:48;9.90;99.90
20398;DHT22;10358;49.590;11.030;2023-02-19T12:49:39;9.90;99.90
20398;DHT22;10358;49.590;11.030;2023-02-19T12:52:17;9.90;99.90
20398;DHT22;10358;49.590;11.030;2023-02-19T12:54:46;9.80;99.90
20398;DHT22;10358;49.590;11.030;2023-02-19T12:57:21;9.80;99.90
20398;DHT22;10358;49.590;11.030;2023-02-19T13:05:23;9.80;99.90
20398;DHT22;10358;49.590;11.030;2023-02-19T13:11:05;9.90;99.90
20398;DHT22;10358;49.590;11.030;2023-02-19T13:13:39;9.90;99.90
20398;DHT22;10358;49.590;11.030;2023-02-19T13:16:13;10.00;99.90
20398;DHT22;10358;49.590;11.030;2023-02-19T13:18:47;10.00;99.90
20398;DHT22;10358;49.590;11.030;2023-02-19T13:21:16;10.10;99.90
20398;DHT22;10358;49.590;11.030;2023-02-19T13:24:09;10.20;99.90
20398;DHT22;10358;49.590;11.030;2023-02-19T13:26:48;10.20;99.90
20398;DHT22;10358;49.590;11.030;2023-02-19T13:37:54;10.40;99.90
20398;DHT22;10358;49.590;11.030;2023-02-19T13:40:36;10.40;99.90
20398;DHT22;10358;49.590;11.030;2023-02-19T13:43:05;10.30;99.90
20398;DHT22;10358;49.590;11.030;2023-02-19T13:45:43;10.30;99.90
20398;DHT22;10358;49.590;11.030;2023-02-19T13:50:48;10.30;99.90
20398;DHT22;10358;49.590;11.030;2023-02-19T14:12:03;10.30;99.90
20398;DHT22;10358;49.590;11.030;2023-02-19T14:14:33;10.30;99.90
20398;DHT22;10358;49.590;11.030;2023-02-19T14:19:47;10.30;99.90
20398;DHT22;10358;49.590;11.030;2023-02-19T14:25:33;10.30;99.90
20398;DHT22;10358;49.590;11.030;2023-02-19T14:30:41;10.50;99.90
20398;DHT22;10358;49.590;11.030;2023-02-19T14:33:09;10.50;99.90
20398;DHT22;10358;49.590;11.030;2023-02-19T14:35:44;10.50;99.90
20398;DHT22;10358;49.590;11.030;2023-02-19T14:38:50;10.50;99.90
20398;DHT22;10358;49.590;11.030;2023-02-19T14:41:17;10.40;99.90
20398;DHT22;10358;49.590;11.030;2023-02-19T14:43:44;10.40;99.90
20398;DHT22;10358;49.590;11.030;2023-02-19T14:46:29;10.40;99.90
20398;DHT22;10358;49.590;11.030;2023-02-19T14:49:05;10.40;99.90
20398;DHT22;10358;49.590;11.030;2023-02-19T14:51:41;10.40;99.90
20398;DHT22;10358;49.590;11.030;2023-02-19T14:54:16;10.40;99.90
20398;DHT22;10358;49.590;11.030;2023-02-19T14:56:45;10.40;99.90
20398;DHT22;10358;49.590;11.030;2023-02-19T14:59:22;10.50;99.90
20398;DHT22;10358;49.590;11.030;2023-02-19T15:02:15;10.50;99.90
20398;DHT22;10358;49.590;11.030;2023-02-19T15:04:45;10.60;99.90
20398;DHT22;10358;49.590;11.030;2023-02-19T15:07:19;10.60;99.90
20398;DHT22;10358;49.590;11.030;2023-02-19T15:09:48;10.60;99.90
20398;DHT22;10358;49.590;11.030;2023-02-19T15:12:26;10.60;99.90
20398;DHT22;10358;49.590;11.030;2023-02-19T15:14:56;10.60;99.90
20398;DHT22;10358;49.590;11.030;2023-02-19T15:17:28;10.80;99.90
20398;DHT22;10358;49.590;11.030;2023-02-19T15:19:56;10.80;99.90
20398;DHT22;10358;49.590;11.030;2023-02-19T15:22:24;10.90;99.90
20398;DHT22;10358;49.590;11.030;2023-02-19T15:24:53;11.10;99.90
20398;DHT22;10358;49.590;11.030;2023-02-19T15:27:21;11.20;99.90
20398;DHT22;10358;49.590;11.030;2023-02-19T15:29:49;11.30;99.90
20398;DHT22;10358;49.590;11.030;2023-02-19T15:32:18;11.10;99.90
20398;DHT22;10358;49.590;11.030;2023-02-19T15:34:56;11.00;99.90
20398;DHT22;10358;49.590;11.030;2023-02-19T15:37:32;10.80;99.90
20398;DHT22;10358;49.590;11.030;2023-02-19T15:40:03;10.70;99.90
20398;DHT22;10358;49.590;11.030;2023-02-19T15:42:33;10.60;99.90
20398;DHT22;10358;49.590;11.030;2023-02-19T15:47:38;10.50;99.90
20398;DHT22;10358;49.590;11.030;2023-02-19T15:50:13;10.40;99.90
20398;DHT22;10358;49.590;11.030;2023-02-19T15:52:53;10.30;99.90
20398;DHT22;10358;49.590;11.030;2023-02-19T15:58:00;10.20;99.90
20398;DHT22;10358;49.590;11.030;2023-02-19T16:00:52;10.10;99.90
20398;DHT22;10358;49.590;11.030;2023-02-19T16:03:21;10.10;99.90
20398;DHT22;10358;49.590;11.030;2023-02-19T16:06:05;10.10;99.90
20398;DHT22;10358;49.590;11.030;2023-02-19T16:08:36;10.00;99.90
20398;DHT22;10358;49.590;11.030;2023-02-19T16:11:05;10.00;99.90
20398;DHT22;10358;49.590;11.030;2023-02-19T16:13:33;9.90;99.90
20398;DHT22;10358;49.590;11.030;2023-02-19T16:18:33;9.80;99.90
20398;DHT22;10358;49.590;11.030;2023-02-19T16:21:00;9.80;99.90
20398;DHT22;10358;49.590;11.030;2023-02-19T16:23:27;9.70;99.90
20398;DHT22;10358;49.590;11.030;2023-02-19T16:25:58;9.70;99.90
20398;DHT22;10358;49.590;11.030;2023-02-19T16:28:26;9.60;99.90
20398;DHT22;10358;49.590;11.030;2023-02-19T16:31:03;9.60;99.90
20398;DHT22;10358;49.590;11.030;2023-02-19T16:36:33;9.60;99.90
20398;DHT22;10358;49.590;11.030;2023-02-19T16:46:53;9.50;99.90
20398;DHT22;10358;49.590;11.030;2023-02-19T16:49:20;9.50;99.90
20398;DHT22;10358;49.590;11.030;2023-02-19T16:51:46;9.50;99.90
20398;DHT22;10358;49.590;11.030;2023-02-19T16:54:12;9.50;99.90
20398;DHT22;10358;49.590;11.030;2023-02-19T16:56:38;9.40;99.90
20398;DHT22;10358;49.590;11.030;2023-02-19T16:59:04;9.40;99.90
20398;DHT22;10358;49.590;11.030;2023-02-19T17:01:31;9.30;99.90
20398;DHT22;10358;49.590;11.030;2023-02-19T17:03:59;9.20;99.90
20398;DHT22;10358;49.590;11.030;2023-02-19T17:06:27;9.20;99.90
20398;DHT22;10358;49.590;11.030;2023-02-19T17:08:53;9.20;99.90
20398;DHT22;10358;49.590;11.030;2023-02-19T17:11:18;9.20;99.90
20398;DHT22;10358;49.590;11.030;2023-02-19T17:13:45;9.20;99.90
20398;DHT22;10358;49.590;11.030;2023-02-19T17:16:25;9.10;99.90
20398;DHT22;10358;49.590;11.030;2023-02-19T17:18:52;9.10;99.90
20398;DHT22;10358;49.590;11.030;2023-02-19T17:21:27;9.10;99.90
20398;DHT22;10358;49.590;11.030;2023-02-19T17:23:53;9.10;99.90
20398;DHT22;10358;49.590;11.030;2023-02-19T17:26:28;9.10;99.90
20398;DHT22;10358;49.590;11.030;2023-02-19T17:28:58;9.00;99.90
20398;DHT22;10358;49.590;11.030;2023-02-19T17:31:24;9.00;99.90
20398;DHT22;10358;49.590;11.030;2023-02-19T17:33:51;9.00;99.90
20398;DHT22;10358;49.590;11.030;2023-02-19T17:36:26;9.00;99.90
20398;DHT22;10358;49.590;11.030;2023-02-19T17:38:52;9.00;99.90
20398;DHT22;10358;49.590;11.030;2023-02-19T17:41:18;8.90;99.90
20398;DHT22;10358;49.590;11.030;2023-02-19T17:43:44;8.90;99.90
20398;DHT22;10358;49.590;11.030;2023-02-19T17:46:14;8.90;99.90
20398;DHT22;10358;49.590;11.030;2023-02-19T17:48:40;8.90;99.90
20398;DHT22;10358;49.590;11.030;2023-02-19T17:51:05;8.90;99.90
20398;DHT22;10358;49.590;11.030;2023-02-19T17:53:31;8.90;99.90
20398;DHT22;10358;49.590;11.030;2023-02-19T17:55:56;8.90;99.90
20398;DHT22;10358;49.590;11.030;2023-02-19T17:58:22;8.90;99.90
20398;DHT22;10358;49.590;11.030;2023-02-19T18:00:47;8.90;99.90
20398;DHT22;10358;49.590;11.030;2023-02-19T18:03:13;8.90;99.90
20398;DHT22;10358;49.590;11.030;2023-02-19T18:05:39;8.90;99.90
20398;DHT22;10358;49.590;11.030;2023-02-19T18:08:04;8.90;99.90
20398;DHT22;10358;49.590;11.030;2023-02-19T18:10:30;8.90;99.90
20398;DHT22;10358;49.590;11.030;2023-02-19T18:12:55;8.90;99.90